sensor_id;sensor_type;location;lat;lon;timestamp;pressure;altitude;pressure_sealevel;temperature;humidity
72428;BME280;60419;48.880;18.036;2023-11-22T00:01:24;98899.44;;;7.41;72.91
72428;BME280;60419;48.880;18.036;2023-11-22T00:04:11;98911.75;;;7.18;72.95
72428;BME280;60419;48.880;18.036;2023-11-22T00:06:56;98915.34;;;6.20;75.99
72428;BME280;60419;48.880;18.036;2023-11-22T00:09:41;98916.00;;;6.02;78.20
72428;BME280;60419;48.880;18.036;2023-11-22T00:12:27;98920.06;;;5.94;77.33
72428;BME280;60419;48.880;18.036;2023-11-22T00:15:13;98922.88;;;6.13;76.83
72428;BME280;60419;48.880;18.036;2023-11-22T00:18:03;98925.84;;;5.67;77.61
72428;BME280;60419;48.880;18.036;2023-11-22T00:20:48;98941.13;;;5.62;78.91
72428;BME280;60419;48.880;18.036;2023-11-22T00:23:34;98943.00;;;5.66;78.26
72428;BME280;60419;48.880;18.036;2023-11-22T00:26:19;98947.41;;;5.42;78.48
72428;BME280;60419;48.880;18.036;2023-11-22T00:29:05;98955.38;;;5.57;77.39
72428;BME280;60419;48.880;18.036;2023-11-22T00:31:50;98961.88;;;5.35;77.13
72428;BME280;60419;48.880;18.036;2023-11-22T00:34:35;98970.44;;;5.32;77.12
72428;BME280;60419;48.880;18.036;2023-11-22T00:37:21;98965.50;;;5.70;75.76
72428;BME280;60419;48.880;18.036;2023-11-22T00:40:07;98979.44;;;5.67;75.38
72428;BME280;60419;48.880;18.036;2023-11-22T00:42:58;98979.97;;;5.64;75.90
72428;BME280;60419;48.880;18.036;2023-11-22T00:45:43;98988.88;;;5.54;75.88
72428;BME280;60419;48.880;18.036;2023-11-22T00:48:29;98987.53;;;5.57;75.25
72428;BME280;60419;48.880;18.036;2023-11-22T00:51:14;98990.78;;;5.39;75.93
72428;BME280;60419;48.880;18.036;2023-11-22T00:54:00;98986.41;;;5.68;74.96
72428;BME280;60419;48.880;18.036;2023-11-22T00:56:46;98973.38;;;6.01;74.28
72428;BME280;60419;48.880;18.036;2023-11-22T00:59:31;98992.13;;;6.01;73.22
72428;BME280;60419;48.880;18.036;2023-11-22T01:02:17;98993.34;;;5.74;73.66
72428;BME280;60419;48.880;18.036;2023-11-22T01:05:02;99003.00;;;5.81;74.35
72428;BME280;60419;48.880;18.036;2023-11-22T01:07:48;98997.91;;;5.74;74.55
72428;BME280;60419;48.880;18.036;2023-11-22T01:10:34;99000.78;;;5.88;73.25
72428;BME280;60419;48.880;18.036;2023-11-22T01:13:19;99012.41;;;5.68;73.72
72428;BME280;60419;48.880;18.036;2023-11-22T01:16:10;99015.13;;;5.57;74.06
72428;BME280;60419;48.880;18.036;2023-11-22T01:18:55;99007.88;;;5.63;74.01
72428;BME280;60419;48.880;18.036;2023-11-22T01:21:41;99024.03;;;6.08;72.65
72428;BME280;60419;48.880;18.036;2023-11-22T01:24:26;99026.19;;;6.06;73.60
72428;BME280;60419;48.880;18.036;2023-11-22T01:27:13;99023.47;;;6.11;71.27
72428;BME280;60419;48.880;18.036;2023-11-22T01:29:58;99022.63;;;5.61;72.88
72428;BME280;60419;48.880;18.036;2023-11-22T01:32:44;99034.50;;;5.24;72.92
72428;BME280;60419;48.880;18.036;2023-11-22T01:35:30;99023.25;;;4.96;74.06
72428;BME280;60419;48.880;18.036;2023-11-22T01:38:15;99028.63;;;4.96;74.25
72428;BME280;60419;48.880;18.036;2023-11-22T01:41:01;99024.59;;;5.14;73.35
72428;BME280;60419;48.880;18.036;2023-11-22T01:43:46;99025.69;;;4.98;74.00
72428;BME280;60419;48.880;18.036;2023-11-22T01:46:32;99020.31;;;4.82;74.36
72428;BME280;60419;48.880;18.036;2023-11-22T01:49:18;99016.28;;;4.90;74.80
72428;BME280;60419;48.880;18.036;2023-11-22T01:52:04;99002.88;;;4.54;73.97
72428;BME280;60419;48.880;18.036;2023-11-22T01:54:49;99020.84;;;4.84;74.45
72428;BME280;60419;48.880;18.036;2023-11-22T01:57:35;99007.72;;;4.78;73.35
72428;BME280;60419;48.880;18.036;2023-11-22T02:00:21;99032.59;;;4.58;73.18
72428;BME280;60419;48.880;18.036;2023-11-22T02:03:07;99033.69;;;4.77;73.49
72428;BME280;60419;48.880;18.036;2023-11-22T02:05:53;99042.50;;;4.67;73.48
72428;BME280;60419;48.880;18.036;2023-11-22T02:08:39;99043.28;;;4.47;73.18
72428;BME280;60419;48.880;18.036;2023-11-22T02:11:24;99047.28;;;4.35;73.54
72428;BME280;60419;48.880;18.036;2023-11-22T02:14:11;99053.16;;;4.42;73.88
72428;BME280;60419;48.880;18.036;2023-11-22T02:16:56;99059.34;;;4.47;73.40
72428;BME280;60419;48.880;18.036;2023-11-22T02:19:43;99066.28;;;4.48;72.06
72428;BME280;60419;48.880;18.036;2023-11-22T02:22:29;99082.88;;;4.51;71.13
72428;BME280;60419;48.880;18.036;2023-11-22T02:25:14;99082.53;;;4.32;72.69
72428;BME280;60419;48.880;18.036;2023-11-22T02:28:02;99081.53;;;4.48;71.94
72428;BME280;60419;48.880;18.036;2023-11-22T02:30:48;99080.75;;;4.63;71.82
72428;BME280;60419;48.880;18.036;2023-11-22T02:33:33;99081.31;;;4.90;71.06
72428;BME280;60419;48.880;18.036;2023-11-22T02:36:18;99089.03;;;4.51;71.92
72428;BME280;60419;48.880;18.036;2023-11-22T02:39:04;99088.81;;;4.83;69.90
72428;BME280;60419;48.880;18.036;2023-11-22T02:41:49;99099.81;;;4.92;70.04
72428;BME280;60419;48.880;18.036;2023-11-22T02:44:35;99112.16;;;5.13;68.56
72428;BME280;60419;48.880;18.036;2023-11-22T02:47:20;99109.72;;;5.02;69.27
72428;BME280;60419;48.880;18.036;2023-11-22T02:50:06;99110.97;;;4.53;70.64
72428;BME280;60419;48.880;18.036;2023-11-22T02:52:51;99110.06;;;4.17;71.94
72428;BME280;60419;48.880;18.036;2023-11-22T02:55:36;99113.97;;;3.94;72.50
72428;BME280;60419;48.880;18.036;2023-11-22T02:58:22;99108.31;;;3.85;73.91
72428;BME280;60419;48.880;18.036;2023-11-22T03:01:07;99107.13;;;4.29;71.90
72428;BME280;60419;48.880;18.036;2023-11-22T03:04:05;99108.97;;;4.18;71.70
72428;BME280;60419;48.880;18.036;2023-11-22T03:06:50;99116.41;;;4.05;72.02
72428;BME280;60419;48.880;18.036;2023-11-22T03:09:36;99116.94;;;3.55;74.43
72428;BME280;60419;48.880;18.036;2023-11-22T03:12:22;99125.06;;;3.70;73.21
72428;BME280;60419;48.880;18.036;2023-11-22T03:15:08;99101.75;;;3.60;73.21
72428;BME280;60419;48.880;18.036;2023-11-22T03:17:54;99123.81;;;3.41;74.42
72428;BME280;60419;48.880;18.036;2023-11-22T03:20:39;99115.81;;;3.51;73.07
72428;BME280;60419;48.880;18.036;2023-11-22T03:23:27;99120.84;;;3.42;72.80
72428;BME280;60419;48.880;18.036;2023-11-22T03:26:13;99108.34;;;3.48;73.46
72428;BME280;60419;48.880;18.036;2023-11-22T03:28:58;99112.22;;;3.30;73.75
72428;BME280;60419;48.880;18.036;2023-11-22T03:31:44;99125.03;;;3.28;74.01
72428;BME280;60419;48.880;18.036;2023-11-22T03:34:29;99139.38;;;3.22;74.52
72428;BME280;60419;48.880;18.036;2023-11-22T03:37:15;99123.16;;;3.28;74.30
72428;BME280;60419;48.880;18.036;2023-11-22T03:40:00;99131.72;;;3.30;74.18
72428;BME280;60419;48.880;18.036;2023-11-22T03:42:46;99133.00;;;3.23;74.91
72428;BME280;60419;48.880;18.036;2023-11-22T03:45:31;99135.53;;;3.07;75.44
72428;BME280;60419;48.880;18.036;2023-11-22T03:48:17;99131.56;;;3.10;75.19
72428;BME280;60419;48.880;18.036;2023-11-22T03:51:02;99121.03;;;2.98;74.76
72428;BME280;60419;48.880;18.036;2023-11-22T03:53:48;99130.66;;;2.99;75.20
72428;BME280;60419;48.880;18.036;2023-11-22T03:56:33;99133.06;;;3.01;75.19
72428;BME280;60419;48.880;18.036;2023-11-22T03:59:18;99125.13;;;2.79;75.10
72428;BME280;60419;48.880;18.036;2023-11-22T04:02:04;99146.16;;;3.02;75.26
72428;BME280;60419;48.880;18.036;2023-11-22T04:04:50;99159.69;;;2.95;74.44
72428;BME280;60419;48.880;18.036;2023-11-22T04:07:36;99169.13;;;3.03;74.57
72428;BME280;60419;48.880;18.036;2023-11-22T04:10:23;99178.19;;;3.02;74.36
72428;BME280;60419;48.880;18.036;2023-11-22T04:13:09;99170.50;;;2.79;74.28
72428;BME280;60419;48.880;18.036;2023-11-22T04:15:54;99187.91;;;2.86;74.27
72428;BME280;60419;48.880;18.036;2023-11-22T04:18:40;99178.44;;;2.73;74.62
72428;BME280;60419;48.880;18.036;2023-11-22T04:21:26;99177.63;;;2.73;74.61
72428;BME280;60419;48.880;18.036;2023-11-22T04:24:11;99191.88;;;2.84;74.77
72428;BME280;60419;48.880;18.036;2023-11-22T04:26:57;99198.25;;;2.83;74.82
72428;BME280;60419;48.880;18.036;2023-11-22T04:29:43;99208.13;;;2.82;74.54
72428;BME280;60419;48.880;18.036;2023-11-22T04:32:28;99207.78;;;2.73;74.74
72428;BME280;60419;48.880;18.036;2023-11-22T04:35:14;99199.66;;;2.63;74.21
72428;BME280;60419;48.880;18.036;2023-11-22T04:37:59;99213.75;;;2.37;75.60
72428;BME280;60419;48.880;18.036;2023-11-22T04:40:45;99217.66;;;2.73;75.08
72428;BME280;60419;48.880;18.036;2023-11-22T04:43:30;99210.72;;;2.50;75.23
72428;BME280;60419;48.880;18.036;2023-11-22T04:46:16;99207.31;;;2.55;75.05
72428;BME280;60419;48.880;18.036;2023-11-22T04:49:02;99214.59;;;2.42;75.85
72428;BME280;60419;48.880;18.036;2023-11-22T04:51:47;99235.28;;;2.52;75.28
72428;BME280;60419;48.880;18.036;2023-11-22T04:54:33;99226.25;;;2.36;76.00
72428;BME280;60419;48.880;18.036;2023-11-22T04:57:19;99217.72;;;2.34;75.93
72428;BME280;60419;48.880;18.036;2023-11-22T05:00:05;99224.38;;;2.15;76.45
72428;BME280;60419;48.880;18.036;2023-11-22T05:02:52;99205.41;;;2.11;76.20
72428;BME280;60419;48.880;18.036;2023-11-22T05:05:39;99240.13;;;2.38;75.67
72428;BME280;60419;48.880;18.036;2023-11-22T05:08:24;99237.91;;;2.30;75.60
72428;BME280;60419;48.880;18.036;2023-11-22T05:11:10;99233.41;;;2.14;75.95
72428;BME280;60419;48.880;18.036;2023-11-22T05:13:55;99246.75;;;1.97;76.57
72428;BME280;60419;48.880;18.036;2023-11-22T05:16:41;99263.84;;;2.18;75.48
72428;BME280;60419;48.880;18.036;2023-11-22T05:19:27;99272.19;;;2.21;75.65
72428;BME280;60419;48.880;18.036;2023-11-22T05:22:12;99274.13;;;2.26;75.53
72428;BME280;60419;48.880;18.036;2023-11-22T05:24:57;99284.63;;;2.16;75.17
72428;BME280;60419;48.880;18.036;2023-11-22T05:27:43;99293.31;;;2.28;75.25
72428;BME280;60419;48.880;18.036;2023-11-22T05:30:28;99285.91;;;2.13;75.32
72428;BME280;60419;48.880;18.036;2023-11-22T05:33:15;99309.66;;;2.15;75.15
72428;BME280;60419;48.880;18.036;2023-11-22T05:36:00;99306.75;;;2.16;75.49
72428;BME280;60419;48.880;18.036;2023-11-22T05:38:45;99309.25;;;2.06;76.07
72428;BME280;60419;48.880;18.036;2023-11-22T05:41:31;99307.69;;;2.10;75.68
72428;BME280;60419;48.880;18.036;2023-11-22T05:44:16;99313.53;;;2.24;74.64
72428;BME280;60419;48.880;18.036;2023-11-22T05:47:02;99303.91;;;2.40;73.86
72428;BME280;60419;48.880;18.036;2023-11-22T05:49:47;99326.94;;;2.29;74.64
72428;BME280;60419;48.880;18.036;2023-11-22T05:52:33;99319.25;;;2.49;73.95
72428;BME280;60419;48.880;18.036;2023-11-22T05:55:18;99333.38;;;2.33;74.10
72428;BME280;60419;48.880;18.036;2023-11-22T05:58:04;99336.09;;;2.55;73.37
72428;BME280;60419;48.880;18.036;2023-11-22T06:00:49;99338.91;;;2.65;72.67
72428;BME280;60419;48.880;18.036;2023-11-22T06:03:36;99343.69;;;2.63;73.06
72428;BME280;60419;48.880;18.036;2023-11-22T06:06:22;99333.28;;;2.45;73.30
72428;BME280;60419;48.880;18.036;2023-11-22T06:09:08;99351.69;;;2.46;73.41
72428;BME280;60419;48.880;18.036;2023-11-22T06:11:55;99367.53;;;2.53;73.31
72428;BME280;60419;48.880;18.036;2023-11-22T06:14:41;99364.47;;;2.61;72.65
72428;BME280;60419;48.880;18.036;2023-11-22T06:17:26;99371.88;;;2.59;73.01
72428;BME280;60419;48.880;18.036;2023-11-22T06:20:15;99364.38;;;2.56;73.25
72428;BME280;60419;48.880;18.036;2023-11-22T06:23:00;99370.22;;;2.53;73.15
72428;BME280;60419;48.880;18.036;2023-11-22T06:25:46;99373.81;;;2.81;72.09
72428;BME280;60419;48.880;18.036;2023-11-22T06:28:31;99378.16;;;2.70;72.07
72428;BME280;60419;48.880;18.036;2023-11-22T06:31:16;99390.84;;;2.97;71.42
72428;BME280;60419;48.880;18.036;2023-11-22T06:34:02;99393.78;;;2.78;71.25
72428;BME280;60419;48.880;18.036;2023-11-22T06:36:48;99394.38;;;2.46;72.25
72428;BME280;60419;48.880;18.036;2023-11-22T06:39:33;99406.63;;;2.64;71.93
72428;BME280;60419;48.880;18.036;2023-11-22T06:42:19;99378.69;;;2.50;72.04
72428;BME280;60419;48.880;18.036;2023-11-22T06:45:07;99413.69;;;2.70;71.93
72428;BME280;60419;48.880;18.036;2023-11-22T06:47:57;99418.97;;;2.87;70.97
72428;BME280;60419;48.880;18.036;2023-11-22T06:50:43;99411.50;;;2.34;72.29
72428;BME280;60419;48.880;18.036;2023-11-22T06:53:30;99425.16;;;2.54;72.56
72428;BME280;60419;48.880;18.036;2023-11-22T06:56:17;99429.13;;;2.68;71.98
72428;BME280;60419;48.880;18.036;2023-11-22T06:59:02;99414.56;;;2.59;72.06
72428;BME280;60419;48.880;18.036;2023-11-22T07:01:48;99425.88;;;2.16;73.46
72428;BME280;60419;48.880;18.036;2023-11-22T07:04:33;99406.59;;;2.42;72.44
72428;BME280;60419;48.880;18.036;2023-11-22T07:07:19;99405.69;;;2.37;71.78
72428;BME280;60419;48.880;18.036;2023-11-22T07:10:05;99436.13;;;2.41;71.90
72428;BME280;60419;48.880;18.036;2023-11-22T07:12:50;99440.16;;;2.10;72.59
72428;BME280;60419;48.880;18.036;2023-11-22T07:15:36;99440.50;;;2.30;72.38
72428;BME280;60419;48.880;18.036;2023-11-22T07:18:21;99425.00;;;2.27;72.36
72428;BME280;60419;48.880;18.036;2023-11-22T07:21:09;99437.47;;;2.10;73.28
72428;BME280;60419;48.880;18.036;2023-11-22T07:23:54;99425.97;;;2.21;72.56
72428;BME280;60419;48.880;18.036;2023-11-22T07:26:40;99440.91;;;2.22;72.38
72428;BME280;60419;48.880;18.036;2023-11-22T07:29:25;99445.13;;;2.35;71.08
72428;BME280;60419;48.880;18.036;2023-11-22T07:32:11;99435.63;;;2.10;71.74
72428;BME280;60419;48.880;18.036;2023-11-22T07:34:57;99444.47;;;2.27;71.31
72428;BME280;60419;48.880;18.036;2023-11-22T07:37:48;99459.34;;;1.95;71.38
72428;BME280;60419;48.880;18.036;2023-11-22T07:40:34;99454.50;;;2.37;70.73
72428;BME280;60419;48.880;18.036;2023-11-22T07:43:20;99459.97;;;2.31;70.55
72428;BME280;60419;48.880;18.036;2023-11-22T07:46:08;99456.31;;;2.03;71.78
72428;BME280;60419;48.880;18.036;2023-11-22T07:48:57;99487.00;;;2.05;72.42
72428;BME280;60419;48.880;18.036;2023-11-22T07:51:43;99477.31;;;2.16;71.84
72428;BME280;60419;48.880;18.036;2023-11-22T07:54:30;99490.47;;;2.06;72.54
72428;BME280;60419;48.880;18.036;2023-11-22T07:57:15;99488.22;;;1.86;72.94
72428;BME280;60419;48.880;18.036;2023-11-22T08:00:01;99484.81;;;2.02;72.96
72428;BME280;60419;48.880;18.036;2023-11-22T08:02:49;99480.00;;;1.88;72.58
72428;BME280;60419;48.880;18.036;2023-11-22T08:05:35;99507.53;;;2.22;72.08
72428;BME280;60419;48.880;18.036;2023-11-22T08:08:25;99483.84;;;1.80;73.20
72428;BME280;60419;48.880;18.036;2023-11-22T08:11:11;99500.59;;;2.21;71.54
72428;BME280;60419;48.880;18.036;2023-11-22T08:14:00;99524.47;;;1.87;73.52
72428;BME280;60419;48.880;18.036;2023-11-22T08:16:45;99519.41;;;2.14;72.36
72428;BME280;60419;48.880;18.036;2023-11-22T08:19:31;99538.91;;;2.03;73.02
72428;BME280;60419;48.880;18.036;2023-11-22T08:22:16;99534.13;;;2.34;71.48
72428;BME280;60419;48.880;18.036;2023-11-22T08:25:02;99538.25;;;2.41;71.06
72428;BME280;60419;48.880;18.036;2023-11-22T08:27:49;99500.56;;;2.49;70.36
72428;BME280;60419;48.880;18.036;2023-11-22T08:30:34;99542.00;;;2.40;71.99
72428;BME280;60419;48.880;18.036;2023-11-22T08:33:22;99519.88;;;2.57;70.32
72428;BME280;60419;48.880;18.036;2023-11-22T08:36:08;99528.31;;;2.65;70.42
72428;BME280;60419;48.880;18.036;2023-11-22T08:38:54;99547.44;;;2.62;70.62
72428;BME280;60419;48.880;18.036;2023-11-22T08:41:40;99535.91;;;2.73;69.63
72428;BME280;60419;48.880;18.036;2023-11-22T08:44:25;99556.59;;;2.09;71.10
72428;BME280;60419;48.880;18.036;2023-11-22T08:47:11;99552.94;;;2.27;70.40
72428;BME280;60419;48.880;18.036;2023-11-22T08:49:56;99562.16;;;2.65;69.11
72428;BME280;60419;48.880;18.036;2023-11-22T08:52:42;99567.16;;;2.44;69.59
72428;BME280;60419;48.880;18.036;2023-11-22T08:55:30;99558.22;;;2.39;69.60
72428;BME280;60419;48.880;18.036;2023-11-22T08:58:15;99568.16;;;2.26;68.95
72428;BME280;60419;48.880;18.036;2023-11-22T09:01:01;99556.31;;;2.22;68.26
72428;BME280;60419;48.880;18.036;2023-11-22T09:03:48;99560.16;;;2.26;68.13
72428;BME280;60419;48.880;18.036;2023-11-22T09:06:35;99559.47;;;2.19;68.24
72428;BME280;60419;48.880;18.036;2023-11-22T09:09:20;99554.94;;;2.20;67.98
72428;BME280;60419;48.880;18.036;2023-11-22T09:12:08;99574.59;;;2.31;68.03
72428;BME280;60419;48.880;18.036;2023-11-22T09:14:57;99542.28;;;1.87;69.00
72428;BME280;60419;48.880;18.036;2023-11-22T09:17:43;99552.88;;;2.10;68.23
72428;BME280;60419;48.880;18.036;2023-11-22T09:20:29;99565.88;;;2.06;67.71
72428;BME280;60419;48.880;18.036;2023-11-22T09:23:14;99567.38;;;2.14;67.80
72428;BME280;60419;48.880;18.036;2023-11-22T09:26:00;99574.88;;;2.46;66.88
72428;BME280;60419;48.880;18.036;2023-11-22T09:28:46;99578.44;;;2.51;66.62
72428;BME280;60419;48.880;18.036;2023-11-22T09:31:31;99573.31;;;2.33;67.00
72428;BME280;60419;48.880;18.036;2023-11-22T09:34:16;99551.16;;;2.16;67.09
72428;BME280;60419;48.880;18.036;2023-11-22T09:37:02;99560.53;;;2.47;66.68
72428;BME280;60419;48.880;18.036;2023-11-22T09:39:48;99569.91;;;2.49;66.44
72428;BME280;60419;48.880;18.036;2023-11-22T09:42:35;99568.97;;;2.15;66.77
72428;BME280;60419;48.880;18.036;2023-11-22T09:45:20;99556.72;;;2.43;67.03
72428;BME280;60419;48.880;18.036;2023-11-22T09:48:19;99563.75;;;2.49;66.47
72428;BME280;60419;48.880;18.036;2023-11-22T09:51:07;99557.97;;;2.69;65.54
72428;BME280;60419;48.880;18.036;2023-11-22T09:53:57;99560.94;;;2.72;65.69
72428;BME280;60419;48.880;18.036;2023-11-22T09:56:45;99568.44;;;3.04;64.75
72428;BME280;60419;48.880;18.036;2023-11-22T09:59:36;99571.16;;;2.76;65.84
72428;BME280;60419;48.880;18.036;2023-11-22T10:02:24;99576.44;;;2.59;65.82
72428;BME280;60419;48.880;18.036;2023-11-22T10:05:13;99573.19;;;2.40;66.59
72428;BME280;60419;48.880;18.036;2023-11-22T10:08:00;99588.91;;;2.53;66.40
72428;BME280;60419;48.880;18.036;2023-11-22T10:10:46;99593.91;;;2.49;66.02
72428;BME280;60419;48.880;18.036;2023-11-22T10:13:36;99576.56;;;2.35;66.64
72428;BME280;60419;48.880;18.036;2023-11-22T10:16:22;99614.47;;;2.37;66.80
72428;BME280;60419;48.880;18.036;2023-11-22T10:19:10;99608.13;;;2.55;66.53
72428;BME280;60419;48.880;18.036;2023-11-22T10:22:08;99605.28;;;2.45;65.91
72428;BME280;60419;48.880;18.036;2023-11-22T10:24:58;99629.69;;;2.82;64.69
72428;BME280;60419;48.880;18.036;2023-11-22T10:27:46;99621.28;;;2.73;64.61
72428;BME280;60419;48.880;18.036;2023-11-22T10:30:32;99627.44;;;2.62;64.32
72428;BME280;60419;48.880;18.036;2023-11-22T10:33:19;99610.16;;;2.36;64.98
72428;BME280;60419;48.880;18.036;2023-11-22T10:36:08;99625.25;;;2.31;65.31
72428;BME280;60419;48.880;18.036;2023-11-22T10:38:53;99637.00;;;2.58;64.25
72428;BME280;60419;48.880;18.036;2023-11-22T10:41:39;99659.00;;;3.11;69.33
72428;BME280;60419;48.880;18.036;2023-11-22T10:44:24;99664.34;;;2.94;63.53
72428;BME280;60419;48.880;18.036;2023-11-22T10:47:12;99668.09;;;2.81;63.77
72428;BME280;60419;48.880;18.036;2023-11-22T10:50:00;99661.00;;;2.87;63.84
72428;BME280;60419;48.880;18.036;2023-11-22T10:52:47;99652.16;;;3.15;71.73
72428;BME280;60419;48.880;18.036;2023-11-22T10:55:44;99648.00;;;3.58;62.33
72428;BME280;60419;48.880;18.036;2023-11-22T10:58:32;99640.25;;;3.39;64.00
72428;BME280;60419;48.880;18.036;2023-11-22T11:01:24;99641.50;;;3.88;62.32
72428;BME280;60419;48.880;18.036;2023-11-22T11:04:24;99602.06;;;3.05;63.51
72428;BME280;60419;48.880;18.036;2023-11-22T11:07:14;99600.69;;;3.03;63.92
72428;BME280;60419;48.880;18.036;2023-11-22T11:10:02;99615.13;;;2.73;64.62
72428;BME280;60419;48.880;18.036;2023-11-22T11:12:48;99592.28;;;3.28;63.11
72428;BME280;60419;48.880;18.036;2023-11-22T11:15:34;99610.31;;;3.21;63.32
72428;BME280;60419;48.880;18.036;2023-11-22T11:18:20;99618.56;;;3.36;63.24
72428;BME280;60419;48.880;18.036;2023-11-22T11:21:09;99588.88;;;3.15;62.39
72428;BME280;60419;48.880;18.036;2023-11-22T11:23:58;99622.84;;;3.03;63.19
72428;BME280;60419;48.880;18.036;2023-11-22T11:26:48;99622.13;;;3.42;62.73
72428;BME280;60419;48.880;18.036;2023-11-22T11:29:38;99626.06;;;3.22;62.89
72428;BME280;60419;48.880;18.036;2023-11-22T11:32:31;99628.84;;;3.44;62.26
72428;BME280;60419;48.880;18.036;2023-11-22T11:35:42;99606.59;;;3.38;62.02
72428;BME280;60419;48.880;18.036;2023-11-22T11:38:31;99597.47;;;3.18;62.59
72428;BME280;60419;48.880;18.036;2023-11-22T11:41:25;99635.16;;;3.04;64.07
72428;BME280;60419;48.880;18.036;2023-11-22T11:44:12;99640.19;;;2.72;64.59
72428;BME280;60419;48.880;18.036;2023-11-22T11:46:58;99623.28;;;3.12;63.45
72428;BME280;60419;48.880;18.036;2023-11-22T11:49:44;99614.16;;;2.79;63.94
72428;BME280;60419;48.880;18.036;2023-11-22T11:52:29;99596.59;;;2.38;65.78
72428;BME280;60419;48.880;18.036;2023-11-22T11:55:16;99629.13;;;2.51;65.92
72428;BME280;60419;48.880;18.036;2023-11-22T11:58:06;99638.31;;;2.72;64.84
72428;BME280;60419;48.880;18.036;2023-11-22T12:00:55;99657.41;;;3.10;63.91
72428;BME280;60419;48.880;18.036;2023-11-22T12:03:40;99620.88;;;2.82;63.30
72428;BME280;60419;48.880;18.036;2023-11-22T12:06:25;99662.13;;;2.62;64.90
72428;BME280;60419;48.880;18.036;2023-11-22T12:09:11;99680.00;;;2.62;65.64
72428;BME280;60419;48.880;18.036;2023-11-22T12:11:59;99674.75;;;2.67;65.19
72428;BME280;60419;48.880;18.036;2023-11-22T12:14:46;99691.84;;;2.83;64.22
72428;BME280;60419;48.880;18.036;2023-11-22T12:17:32;99679.84;;;2.28;66.58
72428;BME280;60419;48.880;18.036;2023-11-22T12:20:18;99686.75;;;2.53;66.26
72428;BME280;60419;48.880;18.036;2023-11-22T12:23:06;99704.53;;;2.47;65.67
72428;BME280;60419;48.880;18.036;2023-11-22T12:25:59;99700.53;;;2.61;65.21
72428;BME280;60419;48.880;18.036;2023-11-22T12:28:47;99694.28;;;2.56;65.50
72428;BME280;60419;48.880;18.036;2023-11-22T12:31:33;99668.91;;;2.53;65.46
72428;BME280;60419;48.880;18.036;2023-11-22T12:34:19;99688.28;;;2.48;65.91
72428;BME280;60419;48.880;18.036;2023-11-22T12:37:07;99696.44;;;2.70;65.28
72428;BME280;60419;48.880;18.036;2023-11-22T12:39:54;99691.13;;;2.70;65.46
72428;BME280;60419;48.880;18.036;2023-11-22T12:42:52;99676.84;;;2.24;65.69
72428;BME280;60419;48.880;18.036;2023-11-22T12:45:38;99687.69;;;2.46;65.47
72428;BME280;60419;48.880;18.036;2023-11-22T12:48:25;99688.69;;;2.69;64.49
72428;BME280;60419;48.880;18.036;2023-11-22T12:51:17;99683.78;;;2.37;66.17
72428;BME280;60419;48.880;18.036;2023-11-22T12:54:03;99681.13;;;2.37;65.29
72428;BME280;60419;48.880;18.036;2023-11-22T12:56:50;99696.53;;;2.35;65.94
72428;BME280;60419;48.880;18.036;2023-11-22T12:59:35;99706.50;;;2.28;65.26
72428;BME280;60419;48.880;18.036;2023-11-22T13:02:21;99711.78;;;2.51;65.11
72428;BME280;60419;48.880;18.036;2023-11-22T13:05:06;99710.34;;;2.72;64.84
72428;BME280;60419;48.880;18.036;2023-11-22T13:07:58;99708.47;;;2.33;65.42
72428;BME280;60419;48.880;18.036;2023-11-22T13:10:48;99729.38;;;2.12;67.13
72428;BME280;60419;48.880;18.036;2023-11-22T13:13:38;99725.81;;;1.95;66.80
72428;BME280;60419;48.880;18.036;2023-11-22T13:16:24;99719.94;;;2.33;65.58
72428;BME280;60419;48.880;18.036;2023-11-22T13:19:09;99742.25;;;2.03;66.19
72428;BME280;60419;48.880;18.036;2023-11-22T13:21:54;99734.66;;;2.36;65.68
72428;BME280;60419;48.880;18.036;2023-11-22T13:24:40;99720.78;;;1.87;66.52
72428;BME280;60419;48.880;18.036;2023-11-22T13:27:26;99704.00;;;1.62;66.71
72428;BME280;60419;48.880;18.036;2023-11-22T13:30:11;99715.81;;;2.02;65.84
72428;BME280;60419;48.880;18.036;2023-11-22T13:32:57;99719.19;;;1.85;66.17
72428;BME280;60419;48.880;18.036;2023-11-22T13:35:42;99727.63;;;1.59;66.97
72428;BME280;60419;48.880;18.036;2023-11-22T13:38:29;99747.09;;;1.71;66.68
72428;BME280;60419;48.880;18.036;2023-11-22T13:41:14;99743.13;;;1.62;66.57
72428;BME280;60419;48.880;18.036;2023-11-22T13:44:00;99763.16;;;1.65;66.06
72428;BME280;60419;48.880;18.036;2023-11-22T13:46:46;99762.38;;;1.76;65.30
72428;BME280;60419;48.880;18.036;2023-11-22T13:49:32;99761.44;;;1.70;65.40
72428;BME280;60419;48.880;18.036;2023-11-22T13:52:17;99753.22;;;1.72;64.80
72428;BME280;60419;48.880;18.036;2023-11-22T13:55:03;99769.91;;;1.67;65.24
72428;BME280;60419;48.880;18.036;2023-11-22T13:57:57;99753.03;;;1.31;65.59
72428;BME280;60419;48.880;18.036;2023-11-22T14:00:43;99778.75;;;1.37;66.52
72428;BME280;60419;48.880;18.036;2023-11-22T14:03:28;99787.75;;;1.36;66.04
72428;BME280;60419;48.880;18.036;2023-11-22T14:06:14;99790.47;;;1.48;65.52
72428;BME280;60419;48.880;18.036;2023-11-22T14:09:02;99771.50;;;1.68;64.73
72428;BME280;60419;48.880;18.036;2023-11-22T14:11:47;99782.09;;;1.33;65.54
72428;BME280;60419;48.880;18.036;2023-11-22T14:14:33;99794.59;;;1.32;65.25
72428;BME280;60419;48.880;18.036;2023-11-22T14:17:18;99787.75;;;1.36;65.38
72428;BME280;60419;48.880;18.036;2023-11-22T14:20:08;99748.41;;;1.38;64.33
72428;BME280;60419;48.880;18.036;2023-11-22T14:22:56;99786.94;;;1.36;64.09
72428;BME280;60419;48.880;18.036;2023-11-22T14:25:42;99798.06;;;1.45;64.42
72428;BME280;60419;48.880;18.036;2023-11-22T14:28:27;99804.91;;;1.10;65.66
72428;BME280;60419;48.880;18.036;2023-11-22T14:31:13;99810.00;;;1.42;64.21
72428;BME280;60419;48.880;18.036;2023-11-22T14:33:58;99802.59;;;1.44;63.98
72428;BME280;60419;48.880;18.036;2023-11-22T14:36:44;99817.22;;;1.23;65.21
72428;BME280;60419;48.880;18.036;2023-11-22T14:39:30;99816.50;;;1.46;64.97
72428;BME280;60419;48.880;18.036;2023-11-22T14:42:15;99821.28;;;1.56;64.44